createdAt,value
2018-06-19T00:00:47.464Z,101737.59
2018-06-19T00:03:15.517Z,101732.73
2018-06-19T00:05:43.580Z,101731.22
2018-06-19T00:08:11.640Z,101728.34
2018-06-19T00:10:39.708Z,101734.17
2018-06-19T00:13:07.773Z,101732.63
2018-06-19T00:15:35.807Z,101734.02
2018-06-19T00:18:09.901Z,101736.81
2018-06-19T00:20:37.946Z,101737.51
2018-06-19T00:23:06.012Z,101733.44
2018-06-19T00:25:34.123Z,101735.29
2018-06-19T00:28:02.184Z,101731.91
2018-06-19T00:30:30.272Z,101732.98
2018-06-19T00:32:58.336Z,101735.91
2018-06-19T00:35:26.441Z,101732.98
2018-06-19T00:37:54.504Z,101727.52
2018-06-19T00:40:22.593Z,101728.70
2018-06-19T00:42:50.676Z,101730.47
2018-06-19T00:45:18.733Z,101723.03
2018-06-19T00:47:46.796Z,101725.25
2018-06-19T00:50:14.859Z,101729.84
2018-06-19T00:52:42.932Z,101733.80
2018-06-19T00:55:11.067Z,101726.72
2018-06-19T00:57:39.129Z,101730.45
2018-06-19T01:00:07.251Z,101733.38
2018-06-19T01:02:35.323Z,101728.39
2018-06-19T01:05:03.404Z,101728.27
2018-06-19T01:07:31.472Z,101730.03
2018-06-19T01:09:59.543Z,101739.61
2018-06-19T01:12:27.637Z,101729.13
2018-06-19T01:14:55.729Z,101724.02
2018-06-19T01:17:23.792Z,101731.49
2018-06-19T01:19:51.879Z,101728.48
2018-06-19T01:22:19.953Z,101731.98
2018-06-19T01:24:48.000Z,101729.18
2018-06-19T01:27:16.076Z,101726.75
2018-06-19T01:29:44.127Z,101722.11
2018-06-19T01:32:12.217Z,101719.89
2018-06-19T01:34:40.286Z,101716.06
2018-06-19T01:37:08.379Z,101717.45
2018-06-19T01:39:36.456Z,101721.41
2018-06-19T01:42:04.515Z,101716.18
2018-06-19T01:44:32.571Z,101718.40
2018-06-19T01:47:00.634Z,101714.20
2018-06-19T01:49:28.748Z,101712.81
2018-06-19T01:51:56.796Z,101716.18
2018-06-19T01:54:24.856Z,101712.35
2018-06-19T01:56:52.970Z,101714.35
2018-06-19T01:59:21.044Z,101711.92
2018-06-19T02:01:49.091Z,101703.54
2018-06-19T02:04:17.175Z,101706.70
2018-06-19T02:06:45.241Z,101700.74
2018-06-19T02:09:13.308Z,101698.89
2018-06-19T02:11:41.395Z,101701.89
2018-06-19T02:14:09.468Z,101702.72
2018-06-19T02:16:37.525Z,101711.09
2018-06-19T02:19:05.589Z,101707.97
2018-06-19T02:21:33.644Z,101697.70
2018-06-19T02:24:01.705Z,101700.50
2018-06-19T02:26:29.771Z,101704.60
2018-06-19T02:28:57.828Z,101698.44
2018-06-19T02:31:25.882Z,101700.30
2018-06-19T02:33:53.930Z,101699.84
2018-06-19T02:36:21.976Z,101700.05
2018-06-19T02:38:50.029Z,101698.65
2018-06-19T02:41:18.073Z,101696.47
2018-06-19T02:43:46.138Z,101693.52
2018-06-19T02:46:14.194Z,101692.85
2018-06-19T02:48:42.270Z,101698.08
2018-06-19T02:51:10.312Z,101690.39
2018-06-19T02:53:38.380Z,101690.85
2018-06-19T02:56:06.440Z,101693.95
2018-06-19T02:58:34.521Z,101694.41
2018-06-19T03:01:02.565Z,101692.89
2018-06-19T03:03:30.617Z,101689.16
2018-06-19T03:05:58.734Z,101683.81
2018-06-19T03:08:26.796Z,101680.65
2018-06-19T03:10:54.844Z,101685.42
2018-06-19T03:13:22.884Z,101683.20
2018-06-19T03:15:50.948Z,101692.52
2018-06-19T03:18:19.026Z,101696.14
2018-06-19T03:20:47.088Z,101697.20
2018-06-19T03:23:15.127Z,101693.70
2018-06-19T03:25:43.212Z,101695.69
2018-06-19T03:28:11.257Z,101696.98
2018-06-19T03:30:39.313Z,101699.08
2018-06-19T03:33:07.340Z,101700.02
2018-06-19T03:35:35.404Z,101707.46
2018-06-19T03:38:03.448Z,101707.92
2018-06-19T03:40:31.504Z,101709.31
2018-06-19T03:42:59.547Z,101698.48
2018-06-19T03:45:27.596Z,101712.33
2018-06-19T03:47:55.642Z,101714.55
2018-06-19T03:50:23.732Z,101711.51
2018-06-19T03:52:51.781Z,101716.52
2018-06-19T03:55:19.819Z,101726.39
2018-06-19T03:57:47.880Z,101719.98
2018-06-19T04:00:15.930Z,101728.36
2018-06-19T04:02:43.987Z,101725.93
2018-06-19T04:05:12.029Z,101721.63
2018-06-19T04:07:40.067Z,101721.13
2018-06-19T04:10:08.106Z,101714.23
2018-06-19T04:12:36.144Z,101720.98
2018-06-19T04:15:04.219Z,101718.98
2018-06-19T04:17:32.275Z,101729.83
2018-06-19T04:20:00.321Z,101719.80
2018-06-19T04:22:29.641Z,101722.47
2018-06-19T04:24:58.564Z,101718.16
2018-06-19T04:27:26.908Z,101719.06
2018-06-19T04:29:54.963Z,101716.84
2018-06-19T04:32:23.020Z,101719.98
2018-06-19T04:34:51.335Z,101717.30
2018-06-19T04:37:19.593Z,101724.75
2018-06-19T04:39:47.657Z,101725.20
2018-06-19T04:42:15.797Z,101734.05
2018-06-19T04:44:43.918Z,101724.95
2018-06-19T04:47:11.975Z,101725.08
2018-06-19T04:49:40.098Z,101728.12
2018-06-19T04:52:08.119Z,101732.41
2018-06-19T04:54:36.202Z,101723.44
2018-06-19T04:57:04.265Z,101720.31
2018-06-19T04:59:32.312Z,101729.94
2018-06-19T05:02:00.396Z,101720.02
2018-06-19T05:04:28.456Z,101712.91
2018-06-19T05:06:56.544Z,101718.72
2018-06-19T05:09:24.598Z,101713.58
2018-06-19T05:11:52.665Z,101720.27
2018-06-19T05:14:20.719Z,101719.33
2018-06-19T05:16:48.796Z,101714.84
2018-06-19T05:19:16.843Z,101714.15
2018-06-19T05:21:44.929Z,101713.78
2018-06-19T05:24:13.025Z,101711.64
2018-06-19T05:26:41.075Z,101713.38
2018-06-19T05:29:09.143Z,101714.84
2018-06-19T05:31:37.201Z,101715.91
2018-06-19T05:34:05.265Z,101719.16
2018-06-19T05:36:33.316Z,101725.19
2018-06-19T05:39:01.366Z,101727.33
2018-06-19T05:41:29.429Z,101731.19
2018-06-19T05:43:57.482Z,101736.29
2018-06-19T05:46:25.540Z,101734.39
2018-06-19T05:48:53.850Z,101731.67
2018-06-19T05:51:21.904Z,101738.67
2018-06-19T05:53:49.966Z,101739.20
2018-06-19T05:56:18.039Z,101742.31
2018-06-19T05:58:46.136Z,101742.19
2018-06-19T06:01:14.232Z,101739.33
2018-06-19T06:03:42.292Z,101749.08
2018-06-19T06:06:10.376Z,101755.58
2018-06-19T06:08:38.468Z,101759.41
2018-06-19T06:11:06.790Z,101761.63
2018-06-19T06:13:34.816Z,101769.28
2018-06-19T06:16:02.884Z,101774.95
2018-06-19T06:18:30.948Z,101765.02
2018-06-19T06:20:59.059Z,101763.36
2018-06-19T06:23:27.104Z,101768.52
2018-06-19T06:25:55.201Z,101768.91
2018-06-19T06:28:23.259Z,101773.26
2018-06-19T06:30:51.330Z,101773.26
2018-06-19T06:33:19.428Z,101780.33
2018-06-19T06:35:47.493Z,101779.82
2018-06-19T06:38:15.563Z,101780.85
2018-06-19T06:40:43.629Z,101783.69
2018-06-19T06:43:11.688Z,101776.97
2018-06-19T06:45:39.736Z,101783.02
2018-06-19T06:48:07.799Z,101783.66
2018-06-19T06:50:35.929Z,101786.83
2018-06-19T06:53:03.945Z,101783.66
2018-06-19T06:55:32.016Z,101787.49
2018-06-19T06:58:00.094Z,101787.43
2018-06-19T07:00:28.145Z,101789.22
2018-06-19T07:02:56.214Z,101790.63
2018-06-19T07:05:24.280Z,101793.41
2018-06-19T07:07:52.375Z,101804.90
2018-06-19T07:10:20.453Z,101810.85
2018-06-19T07:12:48.558Z,101815.47
2018-06-19T07:15:16.639Z,101817.58
2018-06-19T07:17:44.748Z,101824.61
2018-06-19T07:20:12.832Z,101839.56
2018-06-19T07:22:40.901Z,101835.05
2018-06-19T07:25:08.980Z,101838.92
2018-06-19T07:27:37.068Z,101846.58
2018-06-19T07:30:05.153Z,101838.59
2018-06-19T07:32:33.232Z,101836.81
2018-06-19T07:35:01.356Z,101839.27
2018-06-19T07:37:29.428Z,101841.22
2018-06-19T07:39:57.493Z,101847.16
2018-06-19T07:42:25.572Z,101857.95
2018-06-19T07:44:53.626Z,101861.20
2018-06-19T07:47:21.763Z,101848.02
2018-06-19T07:49:49.857Z,101847.73
2018-06-19T07:52:17.942Z,101848.55
2018-06-19T07:54:46.000Z,101841.58
2018-06-19T07:57:14.115Z,101848.50
2018-06-19T07:59:42.268Z,101857.27
2018-06-19T08:02:10.585Z,101866.52
2018-06-19T08:04:38.640Z,101865.41
2018-06-19T08:07:10.260Z,101875.14
2018-06-19T08:09:39.013Z,101881.83
2018-06-19T08:12:07.636Z,101887.08
2018-06-19T08:14:36.009Z,101887.86
2018-06-19T08:17:04.114Z,101889.27
2018-06-19T08:19:32.172Z,101894.97
2018-06-19T08:22:00.275Z,101898.30
2018-06-19T08:24:28.353Z,101899.23
2018-06-19T08:26:56.433Z,101895.89
2018-06-19T08:29:24.496Z,101900.23
2018-06-19T08:31:52.572Z,101903.05
2018-06-19T08:34:20.652Z,101910.95
2018-06-19T08:36:48.716Z,101907.47
2018-06-19T08:39:16.784Z,101913.85
2018-06-19T08:41:45.094Z,101916.87
2018-06-19T08:44:13.563Z,101916.87
2018-06-19T08:46:42.483Z,101923.69
2018-06-19T08:49:11.649Z,101931.34
2018-06-19T08:51:39.702Z,101932.72
2018-06-19T08:54:07.782Z,101930.09
2018-06-19T08:56:36.269Z,101928.77
2018-06-19T08:59:04.340Z,101936.32
2018-06-19T09:01:33.123Z,101939.66
2018-06-19T09:04:01.209Z,101940.70
2018-06-19T09:06:29.260Z,101945.00
2018-06-19T09:08:57.331Z,101944.77
2018-06-19T09:11:25.400Z,101943.07
2018-06-19T09:13:53.472Z,101946.00
2018-06-19T09:16:21.590Z,101952.37
2018-06-19T09:18:49.620Z,101950.97
2018-06-19T09:21:17.704Z,101948.95
2018-06-19T09:23:46.070Z,101951.17
2018-06-19T09:26:14.136Z,101949.65
2018-06-19T09:28:42.227Z,101954.00
2018-06-19T09:31:10.305Z,101951.13
2018-06-19T09:33:38.376Z,101951.13
2018-06-19T09:36:06.465Z,101945.80
2018-06-19T09:38:34.549Z,101944.69
2018-06-19T09:41:02.649Z,101947.05
2018-06-19T09:43:30.713Z,101946.55
2018-06-19T09:45:58.773Z,101947.44
2018-06-19T09:48:26.849Z,101945.07
2018-06-19T09:50:55.065Z,101950.89
2018-06-19T09:53:23.140Z,101950.55
2018-06-19T09:55:51.189Z,101956.68
2018-06-19T09:58:19.311Z,101947.44
2018-06-19T10:00:47.444Z,101948.09
2018-06-19T10:03:15.956Z,101949.42
2018-06-19T10:05:44.074Z,101950.24
2018-06-19T10:08:12.170Z,101952.91
2018-06-19T10:10:40.216Z,101959.39
2018-06-19T10:13:08.283Z,101956.65
2018-06-19T10:15:36.360Z,101964.28
2018-06-19T10:18:04.436Z,101963.32
2018-06-19T10:20:32.562Z,101972.97
2018-06-19T10:23:02.032Z,101963.90
2018-06-19T10:25:30.111Z,101959.26
2018-06-19T10:27:58.204Z,101957.67
2018-06-19T10:30:26.273Z,101968.66
2018-06-19T10:32:54.620Z,101966.63
2018-06-19T10:35:22.824Z,101959.11
2018-06-19T10:37:50.941Z,101961.39
2018-06-19T10:40:19.027Z,101970.70
2018-06-19T10:42:47.112Z,101955.72
2018-06-19T10:45:15.169Z,101949.56
2018-06-19T10:47:43.267Z,101955.84
2018-06-19T10:50:11.335Z,101950.01
2018-06-19T10:52:39.455Z,101960.16
2018-06-19T10:55:07.488Z,101951.58
2018-06-19T10:57:35.562Z,101950.52
2018-06-19T11:00:03.701Z,101958.75
2018-06-19T11:02:31.760Z,101952.32
2018-06-19T11:04:59.822Z,101955.20
2018-06-19T11:07:29.384Z,101950.41
2018-06-19T11:09:58.728Z,101956.14
2018-06-19T11:12:27.274Z,101962.13
2018-06-19T11:14:55.332Z,101968.50
2018-06-19T11:17:23.429Z,101957.11
2018-06-19T11:19:51.609Z,101966.28
2018-06-19T11:22:19.668Z,101970.57
2018-06-19T11:24:47.777Z,101968.03
2018-06-19T11:27:16.102Z,101966.22
2018-06-19T11:29:44.497Z,101963.98
2018-06-19T11:32:12.857Z,101970.06
2018-06-19T11:34:40.939Z,101966.94
2018-06-19T11:37:08.990Z,101976.24
2018-06-19T11:39:37.066Z,101972.37
2018-06-19T11:42:05.153Z,101975.44
2018-06-19T11:44:33.224Z,101972.27
2018-06-19T11:47:01.544Z,101963.73
2018-06-19T11:49:30.080Z,101962.95
2018-06-19T11:51:58.173Z,101963.73
2018-06-19T11:54:26.241Z,101959.42
2018-06-19T11:56:54.325Z,101964.02
2018-06-19T11:59:22.371Z,101965.31
2018-06-19T12:01:50.506Z,101966.24
2018-06-19T12:04:18.531Z,101969.47
2018-06-19T12:06:46.640Z,101970.30
2018-06-19T12:09:14.665Z,101972.18
2018-06-19T12:11:42.764Z,101975.02
2018-06-19T12:14:11.816Z,101972.13
2018-06-19T12:16:39.952Z,101976.70
2018-06-19T12:19:08.537Z,101978.75
2018-06-19T12:21:36.615Z,101980.52
2018-06-19T12:24:04.851Z,101979.78
2018-06-19T12:26:32.947Z,101984.12
2018-06-19T12:29:01.020Z,101983.00
2018-06-19T12:31:29.089Z,101990.34
2018-06-19T12:33:57.176Z,101989.47
2018-06-19T12:36:25.294Z,101994.69
2018-06-19T12:38:53.312Z,102001.91
2018-06-19T12:41:21.368Z,102002.87
2018-06-19T12:43:49.429Z,102006.79
2018-06-19T12:46:17.501Z,102010.93
2018-06-19T12:48:45.565Z,102017.46
2018-06-19T12:51:53.880Z,102017.30
2018-06-19T12:54:43.677Z,102014.25
2018-06-19T12:57:11.765Z,102024.52
2018-06-19T12:59:39.831Z,102026.05
2018-06-19T13:02:07.895Z,102018.69
2018-06-19T13:04:47.415Z,102015.31
2018-06-19T13:07:15.504Z,102023.97
2018-06-19T13:09:43.561Z,102023.92
2018-06-19T13:12:23.593Z,102031.79
2018-06-19T13:14:51.652Z,102030.62
2018-06-19T13:17:31.288Z,102033.08
2018-06-19T13:21:06.693Z,102031.87
2018-06-19T13:23:34.756Z,102035.12
2018-06-19T13:26:02.825Z,102040.91
2018-06-19T13:28:42.229Z,102045.57
2018-06-19T13:31:21.825Z,102044.32
2018-06-19T13:33:49.907Z,102042.28
2018-06-19T13:36:17.975Z,102046.66
2018-06-19T13:38:46.023Z,102044.36
2018-06-19T13:41:27.556Z,102036.09
2018-06-19T13:44:10.408Z,102036.57
2018-06-19T13:46:38.464Z,102035.30
2018-06-19T13:49:06.524Z,102034.06
2018-06-19T13:51:35.193Z,102033.14
2018-06-19T13:54:03.272Z,102035.75
2018-06-19T13:57:44.600Z,102046.69
2018-06-19T14:00:21.229Z,102052.52
2018-06-19T14:02:49.348Z,102061.90
2018-06-19T14:05:18.615Z,102060.63
2018-06-19T14:08:02.331Z,102066.98
2018-06-19T14:10:45.480Z,102061.22
2018-06-19T14:13:13.543Z,102062.23
2018-06-19T14:15:43.792Z,102061.58
2018-06-19T14:18:12.509Z,102060.56
2018-06-19T14:20:41.209Z,102062.45
2018-06-19T14:23:09.429Z,102068.31
2018-06-19T14:25:37.482Z,102064.28
2018-06-19T14:28:05.580Z,102064.02
2018-06-19T14:30:33.636Z,102072.39
2018-06-19T14:33:01.767Z,102073.78
2018-06-19T14:35:29.749Z,102073.27
2018-06-19T14:37:57.811Z,102077.66
2018-06-19T14:40:25.900Z,102079.04
2018-06-19T14:42:53.956Z,102071.98
2018-06-19T14:45:22.020Z,102077.48
2018-06-19T14:47:50.076Z,102077.62
2018-06-19T14:50:18.127Z,102079.97
2018-06-19T14:52:46.190Z,102083.48
2018-06-19T14:55:14.377Z,102081.75
2018-06-19T14:57:42.481Z,102079.23
2018-06-19T15:00:11.270Z,102087.25
2018-06-19T15:02:40.279Z,102086.81
2018-06-19T15:05:08.525Z,102084.36
2018-06-19T15:07:42.078Z,102094.33
2018-06-19T15:10:10.263Z,102086.23
2018-06-19T15:12:38.462Z,102087.89
2018-06-19T15:15:06.544Z,102086.75
2018-06-19T15:17:34.612Z,102084.06
2018-06-19T15:20:02.700Z,102079.67
2018-06-19T15:22:30.773Z,102087.70
2018-06-19T15:24:58.860Z,102092.78
2018-06-19T15:27:27.002Z,102088.13
2018-06-19T15:29:55.072Z,102089.92
2018-06-19T15:32:24.090Z,102089.73
2018-06-19T15:34:52.213Z,102096.93
2018-06-19T15:37:20.802Z,102095.27
2018-06-19T15:39:49.934Z,102095.83
2018-06-19T15:42:18.421Z,102096.95
2018-06-19T15:44:46.998Z,102102.91
2018-06-19T15:47:15.570Z,102091.14
2018-06-19T15:49:43.661Z,102093.17
2018-06-19T15:52:11.868Z,102091.98
2018-06-19T15:54:39.949Z,102098.08
2018-06-19T15:57:08.016Z,102097.69
2018-06-19T15:59:36.102Z,102090.08
2018-06-19T16:02:04.186Z,102086.21
2018-06-19T16:04:32.264Z,102090.60
2018-06-19T16:07:00.372Z,102081.34
2018-06-19T16:09:28.464Z,102085.57
2018-06-19T16:11:56.578Z,102075.20
2018-06-19T16:14:24.665Z,102089.38
2018-06-19T16:16:52.788Z,102082.73
2018-06-19T16:19:20.904Z,102089.17
2018-06-19T16:21:49.010Z,102085.93
2018-06-19T16:24:17.071Z,102086.78
2018-06-19T16:26:45.169Z,102088.19
2018-06-19T16:29:13.240Z,102101.47
2018-06-19T16:31:41.312Z,102100.31
2018-06-19T16:34:09.365Z,102106.09
2018-06-19T16:36:37.445Z,102108.88
2018-06-19T16:39:07.904Z,102111.90
2018-06-19T16:41:35.986Z,102104.69
2018-06-19T16:44:04.052Z,102103.57
2018-06-19T16:46:32.201Z,102111.60
2018-06-19T16:49:00.270Z,102106.36
2018-06-19T16:51:28.346Z,102110.55
2018-06-19T16:53:56.433Z,102112.19
2018-06-19T16:56:24.507Z,102114.69
2018-06-19T16:58:52.581Z,102114.65
2018-06-19T17:01:20.698Z,102120.97
2018-06-19T17:03:48.847Z,102121.52
2018-06-19T17:06:28.542Z,102113.35
2018-06-19T17:08:56.615Z,102115.31
2018-06-19T17:11:24.684Z,102111.32
2018-06-19T17:13:52.761Z,102116.38
2018-06-19T17:16:20.821Z,102111.95
2018-06-19T17:18:48.936Z,102124.63
2018-06-19T17:21:17.074Z,102120.67
2018-06-19T17:23:45.092Z,102128.85
2018-06-19T17:26:13.196Z,102127.83
2018-06-19T17:28:41.263Z,102128.64
2018-06-19T17:31:09.317Z,102125.63
2018-06-19T17:33:37.374Z,102128.28
2018-06-19T17:36:05.453Z,102126.05
2018-06-19T17:38:33.641Z,102123.78
2018-06-19T17:41:02.577Z,102121.66
2018-06-19T17:43:31.324Z,102119.81
2018-06-19T17:46:00.729Z,102121.70
2018-06-19T17:48:28.796Z,102131.52
2018-06-19T17:50:56.866Z,102121.33
2018-06-19T17:53:26.868Z,102122.02
2018-06-19T17:55:54.948Z,102121.58
2018-06-19T17:58:23.008Z,102116.16
2018-06-19T18:00:51.091Z,102114.49
2018-06-19T18:03:19.156Z,102113.88
2018-06-19T18:05:47.244Z,102119.25
2018-06-19T18:08:15.299Z,102124.35
2018-06-19T18:10:43.425Z,102125.12
2018-06-19T18:13:11.440Z,102115.25
2018-06-19T18:15:39.539Z,102120.38
2018-06-19T18:18:07.661Z,102123.13
2018-06-19T18:20:35.693Z,102124.63
2018-06-19T18:23:04.504Z,102117.89
2018-06-19T18:25:32.568Z,102113.67
2018-06-19T18:28:00.651Z,102113.76
2018-06-19T18:30:28.776Z,102117.85
2018-06-19T18:32:56.835Z,102114.80
2018-06-19T18:35:24.915Z,102124.50
2018-06-19T18:37:52.994Z,102120.22
2018-06-19T18:40:21.272Z,102121.77
2018-06-19T18:42:49.413Z,102119.34
2018-06-19T18:45:17.511Z,102117.34
2018-06-19T18:47:45.591Z,102117.21
2018-06-19T18:50:13.697Z,102126.30
2018-06-19T18:52:41.749Z,102126.89
2018-06-19T18:55:09.821Z,102129.05
2018-06-19T18:57:37.888Z,102133.95
2018-06-19T19:00:05.969Z,102135.05
2018-06-19T19:02:34.025Z,102118.98
2018-06-19T19:05:02.117Z,102121.20
2018-06-19T19:07:40.100Z,102131.27
2018-06-19T19:10:13.563Z,102137.69
2018-06-19T19:12:44.574Z,102142.45
2018-06-19T19:15:18.106Z,102146.81
2018-06-19T19:17:51.525Z,102150.74
2018-06-19T19:20:22.912Z,102146.59
2018-06-19T19:22:55.440Z,102149.67
2018-06-19T19:25:23.575Z,102155.08
2018-06-19T19:27:56.971Z,102149.47
2018-06-19T19:30:25.016Z,102154.02
2018-06-19T19:32:53.057Z,102154.77
2018-06-19T19:35:21.141Z,102163.91
2018-06-19T19:37:54.607Z,102157.45
2018-06-19T19:40:22.651Z,102167.86
2018-06-19T19:42:50.714Z,102170.84
2018-06-19T19:45:18.771Z,102181.23
2018-06-19T19:47:52.336Z,102179.65
2018-06-19T19:50:20.277Z,102182.95
2018-06-19T19:52:48.364Z,102188.49
2018-06-19T19:55:16.464Z,102190.64
2018-06-19T19:57:49.971Z,102195.92
2018-06-19T20:00:24.480Z,102196.19
2018-06-19T20:02:52.554Z,102197.05
2018-06-19T20:05:20.656Z,102200.32
2018-06-19T20:07:48.721Z,102199.41
2018-06-19T20:10:16.767Z,102199.09
2018-06-19T20:12:44.825Z,102202.76
2018-06-19T20:15:12.883Z,102206.63
2018-06-19T20:17:41.095Z,102212.16
2018-06-19T20:20:10.216Z,102209.02
2018-06-19T20:22:38.696Z,102204.05
2018-06-19T20:25:06.761Z,102212.59
2018-06-19T20:27:34.833Z,102224.05
2018-06-19T20:30:03.751Z,102216.03
2018-06-19T20:32:31.801Z,102225.66
2018-06-19T20:34:59.878Z,102224.41
2018-06-19T20:37:27.897Z,102227.34
2018-06-19T20:39:55.968Z,102224.81
2018-06-19T20:42:24.014Z,102232.96
2018-06-19T20:44:52.090Z,102232.16
2018-06-19T20:47:20.124Z,102229.48
2018-06-19T20:49:48.200Z,102223.22
2018-06-19T20:52:17.296Z,102225.93
2018-06-19T20:54:45.407Z,102227.09
2018-06-19T20:57:13.460Z,102226.99
2018-06-19T20:59:41.516Z,102230.63
2018-06-19T21:02:09.556Z,102232.02
2018-06-19T21:04:37.604Z,102230.37
2018-06-19T21:07:05.676Z,102228.30
2018-06-19T21:09:33.741Z,102236.33
2018-06-19T21:12:01.802Z,102229.66
2018-06-19T21:14:29.860Z,102228.47
2018-06-19T21:16:57.920Z,102227.64
2018-06-19T21:19:25.978Z,102231.25
2018-06-19T21:21:54.020Z,102227.88
2018-06-19T21:24:22.085Z,102232.63
2018-06-19T21:26:50.147Z,102237.39
2018-06-19T21:29:18.206Z,102225.15
2018-06-19T21:31:46.249Z,102234.81
2018-06-19T21:34:14.324Z,102231.39
2018-06-19T21:36:42.382Z,102236.64
2018-06-19T21:39:11.113Z,102231.36
2018-06-19T21:41:39.168Z,102238.67
2018-06-19T21:44:07.228Z,102238.91
2018-06-19T21:46:35.272Z,102245.52
2018-06-19T21:49:03.340Z,102238.25
2018-06-19T21:51:31.381Z,102235.64
2018-06-19T21:53:59.454Z,102234.22
2018-06-19T21:56:27.515Z,102232.80
2018-06-19T21:58:55.584Z,102235.20
2018-06-19T22:01:23.635Z,102237.88
2018-06-19T22:03:51.703Z,102231.08
2018-06-19T22:06:19.757Z,102227.81
2018-06-19T22:08:52.465Z,102228.25
2018-06-19T22:11:21.140Z,102230.56
2018-06-19T22:13:49.186Z,102225.33
2018-06-19T22:16:17.283Z,102226.59
2018-06-19T22:18:45.406Z,102222.50
2018-06-19T22:21:13.484Z,102224.72
2018-06-19T22:23:41.610Z,102225.64
2018-06-19T22:26:09.711Z,102223.67
2018-06-19T22:28:37.798Z,102223.07
2018-06-19T22:31:06.187Z,102221.93
2018-06-19T22:33:34.361Z,102219.36
2018-06-19T22:36:02.521Z,102218.56
2018-06-19T22:38:30.724Z,102210.77
2018-06-19T22:40:59.142Z,102208.64
2018-06-19T22:43:28.958Z,102202.35
2018-06-19T22:45:59.542Z,102201.40
2018-06-19T22:48:28.998Z,102208.81
2018-06-19T22:50:57.083Z,102206.12
2018-06-19T22:53:25.134Z,102200.97
2018-06-19T22:55:53.192Z,102211.09
2018-06-19T22:58:21.328Z,102197.57
2018-06-19T23:00:50.135Z,102205.81
2018-06-19T23:03:18.208Z,102205.91
2018-06-19T23:05:46.279Z,102200.76
2018-06-19T23:08:14.340Z,102202.91
2018-06-19T23:10:42.423Z,102197.62
2018-06-19T23:13:10.471Z,102200.36
2018-06-19T23:15:38.526Z,102209.22
2018-06-19T23:18:06.617Z,102207.69
2018-06-19T23:20:34.673Z,102210.90
2018-06-19T23:23:02.734Z,102204.36
2018-06-19T23:25:30.820Z,102200.86
2018-06-19T23:27:58.883Z,102190.36
2018-06-19T23:30:26.939Z,102193.84
2018-06-19T23:32:55.009Z,102198.45
2018-06-19T23:35:23.080Z,102207.23
2018-06-19T23:37:51.163Z,102207.97
2018-06-19T23:40:19.208Z,102205.72
2018-06-19T23:42:47.287Z,102205.41
2018-06-19T23:45:15.352Z,102204.77
2018-06-19T23:47:43.399Z,102204.94
2018-06-19T23:50:11.489Z,102209.22
2018-06-19T23:52:39.536Z,102202.91
2018-06-19T23:55:07.595Z,102199.63
2018-06-19T23:57:35.631Z,102190.22
